BAW22E EGLL-KCLT
Flight info
| Callsign | BAW22E |
|---|---|
| Flight time | N/A |
| Altitude | 36000 |
| Route | CPT L9 BUCGO DCT FELCA DCT OFSOX DCT SLANY DCT MALOT/M085F360 DCT 54N020W 54N030W 54N040W 53N050W DCT RIKAL/N0500F360 N572A TOPPS DCT KAYCC DCT KYLOH DCT NELIE Q75 GVE DCT AIROW CHSLY6 |
| Aircraft | A35K/H-SDE2E3GHIJ3J4J5LM1ORWXY/LB1D1 |
Departure
| Time | 2026-05-04 08:24 |
|---|---|
| Airport | London Heathrow Airport (EGLL) |
Arrival
| Time | N/A |
|---|---|
| Airport | Charlotte Douglas International Airport (KCLT) |
| Time | Latitude | Longitude | Altitude | Speed | Heading |
|---|---|---|---|---|---|
| 2026-05-04 07:33 | 51.47144 | -0.47488 | 10 ft | 0 kts | 270° |
| 2026-05-04 08:06 | 51.47144 | -0.47479 | 92 ft | 2 kts | 269° |
| 2026-05-04 08:06 | 51.47144 | -0.47453 | 94 ft | 2 kts | 268° |
| 2026-05-04 08:06 | 51.47145 | -0.47428 | 93 ft | 2 kts | 266° |
| 2026-05-04 08:08 | 51.47170 | -0.47354 | 93 ft | 0 kts | 175° |
| 2026-05-04 08:13 | 51.47167 | -0.47353 | 92 ft | 2 kts | 175° |
| 2026-05-04 08:13 | 51.47147 | -0.47352 | 92 ft | 4 kts | 177° |
| 2026-05-04 08:13 | 51.47107 | -0.47350 | 92 ft | 7 kts | 179° |
| 2026-05-04 08:13 | 51.47069 | -0.47349 | 92 ft | 9 kts | 179° |
| 2026-05-04 08:14 | 51.46999 | -0.47350 | 92 ft | 11 kts | 180° |
| 2026-05-04 08:14 | 51.46917 | -0.47351 | 94 ft | 14 kts | 180° |
| 2026-05-04 08:14 | 51.46816 | -0.47348 | 94 ft | 16 kts | 179° |
| 2026-05-04 08:16 | 51.46751 | -0.45503 | 94 ft | 30 kts | 90° |
| 2026-05-04 08:16 | 51.46750 | -0.45250 | 92 ft | 22 kts | 90° |
| 2026-05-04 08:16 | 51.46751 | -0.45003 | 92 ft | 24 kts | 89° |
| 2026-05-04 08:17 | 51.46751 | -0.44931 | 94 ft | 7 kts | 89° |
| 2026-05-04 08:17 | 51.46752 | -0.44800 | 95 ft | 16 kts | 89° |
| 2026-05-04 08:17 | 51.46753 | -0.44589 | 92 ft | 19 kts | 89° |
| 2026-05-04 08:17 | 51.46754 | -0.44336 | 96 ft | 26 kts | 90° |
| 2026-05-04 08:19 | 51.46621 | -0.43436 | 97 ft | 0 kts | 181° |
| 2026-05-04 08:20 | 51.46619 | -0.43436 | 97 ft | 3 kts | 181° |
| 2026-05-04 08:20 | 51.46616 | -0.43436 | 96 ft | 0 kts | 181° |
| 2026-05-04 08:21 | 51.46609 | -0.43436 | 96 ft | 5 kts | 180° |
| 2026-05-04 08:21 | 51.46536 | -0.43435 | 95 ft | 15 kts | 182° |
| 2026-05-04 08:22 | 51.46508 | -0.43473 | 97 ft | 2 kts | 255° |
| 2026-05-04 08:22 | 51.46497 | -0.43564 | 95 ft | 14 kts | 264° |
| 2026-05-04 08:24 | 51.46471 | -0.47586 | 271 ft | 170 kts | 274° |
| 2026-05-04 08:24 | 51.46486 | -0.49459 | 941 ft | 174 kts | 273° |
| 2026-05-04 08:24 | 51.46479 | -0.51422 | 1648 ft | 187 kts | 269° |
| 2026-05-04 08:24 | 51.46445 | -0.53683 | 2045 ft | 216 kts | 269° |
| 2026-05-04 08:25 | 51.46415 | -0.56176 | 2533 ft | 228 kts | 269° |
| 2026-05-04 08:25 | 51.46393 | -0.58714 | 3080 ft | 235 kts | 270° |
| 2026-05-04 08:25 | 51.46311 | -0.61447 | 3419 ft | 255 kts | 263° |
| 2026-05-04 08:25 | 51.46216 | -0.64285 | 4083 ft | 256 kts | 272° |
| 2026-05-04 08:26 | 51.46532 | -0.67041 | 4953 ft | 249 kts | 283° |
| 2026-05-04 08:27 | 51.45339 | -0.87111 | 9666 ft | 277 kts | 269° |
| 2026-05-04 08:28 | 51.45434 | -0.89076 | 10093 ft | 280 kts | 275° |
| 2026-05-04 08:28 | 51.45755 | -0.92274 | 10490 ft | 294 kts | 278° |
| 2026-05-04 08:28 | 51.46138 | -0.95586 | 10797 ft | 311 kts | 279° |
| 2026-05-04 08:28 | 51.46681 | -1.00249 | 11186 ft | 330 kts | 279° |
| 2026-05-04 08:29 | 51.47104 | -1.03909 | 11688 ft | 338 kts | 279° |
| 2026-05-04 08:29 | 51.47529 | -1.07606 | 12251 ft | 342 kts | 279° |
| 2026-05-04 08:29 | 51.47822 | -1.10164 | 12665 ft | 345 kts | 279° |